createdAt,value
2018-01-01T00:00:27.801Z,0
2018-01-01T00:01:36.388Z,0
2018-01-01T00:02:44.983Z,0
2018-01-01T00:03:53.591Z,0
2018-01-01T00:05:02.214Z,0
2018-01-01T00:06:10.805Z,0
2018-01-01T00:07:19.406Z,0
2018-01-01T00:08:28.030Z,0
2018-01-01T00:09:36.881Z,0
2018-01-01T00:10:45.753Z,0
2018-01-01T00:11:54.624Z,0
2018-01-01T00:13:03.224Z,0
2018-01-01T00:14:11.831Z,0
2018-01-01T00:15:20.424Z,0
2018-01-01T00:16:29.026Z,0
2018-01-01T00:17:37.640Z,0
2018-01-01T00:18:46.238Z,0
2018-01-01T00:19:54.840Z,0
2018-01-01T00:21:03.720Z,0
2018-01-01T00:22:12.325Z,0
2018-01-01T00:23:20.916Z,0
2018-01-01T00:24:29.530Z,0
2018-01-01T00:25:38.141Z,0
2018-01-01T00:26:46.735Z,0
2018-01-01T00:27:55.343Z,0
2018-01-01T00:29:03.941Z,0
2018-01-01T00:30:12.556Z,0
2018-01-01T00:31:21.160Z,0
2018-01-01T00:32:29.754Z,0
2018-01-01T00:33:38.365Z,0
2018-01-01T00:34:46.968Z,0
2018-01-01T00:35:55.566Z,0
2018-01-01T00:37:04.436Z,0
2018-01-01T00:38:13.049Z,0
2018-01-01T00:39:21.638Z,0
2018-01-01T00:40:30.243Z,0
2018-01-01T00:41:38.854Z,0
2018-01-01T00:42:47.448Z,0
2018-01-01T00:43:56.050Z,0
2018-01-01T00:45:04.665Z,0
2018-01-01T00:46:13.259Z,0
2018-01-01T00:47:21.858Z,0
2018-01-01T00:48:30.474Z,0
2018-01-01T00:49:39.332Z,0
2018-01-01T00:50:47.922Z,0
2018-01-01T00:51:57.068Z,0
2018-01-01T00:53:05.674Z,0
2018-01-01T00:54:14.531Z,0
2018-01-01T00:55:23.139Z,0
2018-01-01T00:56:31.744Z,0
2018-01-01T00:57:40.348Z,0
2018-01-01T00:58:48.950Z,0
2018-01-01T00:59:57.541Z,0
2018-01-01T01:01:06.156Z,0
2018-01-01T01:02:14.760Z,0
2018-01-01T01:03:23.615Z,0
2018-01-01T01:04:32.224Z,0
2018-01-01T01:05:40.837Z,0
2018-01-01T01:06:49.686Z,0
2018-01-01T01:07:58.292Z,0
2018-01-01T01:09:06.905Z,0
2018-01-01T01:10:15.504Z,0
2018-01-01T01:11:24.104Z,0
2018-01-01T01:12:32.704Z,0
2018-01-01T01:13:41.313Z,0
2018-01-01T01:14:49.921Z,0
2018-01-01T01:15:58.512Z,0
2018-01-01T01:17:07.119Z,0
2018-01-01T01:18:15.732Z,0
2018-01-01T01:19:24.322Z,0
2018-01-01T01:20:32.929Z,0
2018-01-01T01:21:41.547Z,0
2018-01-01T01:22:50.141Z,0
2018-01-01T01:23:58.740Z,0
2018-01-01T01:25:07.351Z,0
2018-01-01T01:26:15.951Z,0
2018-01-01T01:27:24.564Z,0
2018-01-01T01:28:33.155Z,0
2018-01-01T01:29:41.755Z,0
2018-01-01T01:30:50.372Z,0
2018-01-01T01:31:58.967Z,0
2018-01-01T01:33:07.563Z,0
2018-01-01T01:34:16.178Z,0
2018-01-01T01:35:24.781Z,0
2018-01-01T01:36:33.369Z,0
2018-01-01T01:37:41.990Z,0
2018-01-01T01:38:50.848Z,0
2018-01-01T01:39:59.445Z,0
2018-01-01T01:41:08.057Z,0
2018-01-01T01:42:16.657Z,0
2018-01-01T01:43:25.268Z,0
2018-01-01T01:44:33.870Z,0
2018-01-01T01:45:42.717Z,0
2018-01-01T01:46:51.330Z,0
2018-01-01T01:47:59.935Z,0
2018-01-01T01:49:08.527Z,0
2018-01-01T01:50:17.138Z,0
2018-01-01T01:51:25.746Z,0
2018-01-01T01:52:34.594Z,0
2018-01-01T01:53:43.197Z,0
2018-01-01T01:54:51.810Z,0
2018-01-01T01:56:00.404Z,0
2018-01-01T01:57:09.007Z,0
2018-01-01T01:58:17.601Z,0
2018-01-01T01:59:26.473Z,0
2018-01-01T02:00:35.085Z,0
2018-01-01T02:01:43.676Z,0
2018-01-01T02:02:52.544Z,0
2018-01-01T02:04:01.426Z,0
2018-01-01T02:05:10.018Z,0
2018-01-01T02:06:18.885Z,0
2018-01-01T02:07:27.499Z,0
2018-01-01T02:08:36.094Z,0
2018-01-01T02:09:44.690Z,0
2018-01-01T02:10:53.295Z,0
2018-01-01T02:12:01.904Z,0
2018-01-01T02:13:10.512Z,0
2018-01-01T02:14:19.107Z,0
2018-01-01T02:15:27.706Z,0
2018-01-01T02:16:36.322Z,0
2018-01-01T02:17:44.917Z,0
2018-01-01T02:18:53.516Z,0
2018-01-01T02:20:02.127Z,0
2018-01-01T02:21:10.728Z,0
2018-01-01T02:22:19.321Z,0
2018-01-01T02:23:27.931Z,0
2018-01-01T02:24:36.538Z,0
2018-01-01T02:25:45.147Z,0
2018-01-01T02:26:53.738Z,0
2018-01-01T02:28:02.336Z,0
2018-01-01T02:29:10.951Z,0
2018-01-01T02:30:19.555Z,0
2018-01-01T02:31:28.143Z,0
2018-01-01T02:32:36.756Z,0
2018-01-01T02:33:45.362Z,0
2018-01-01T02:34:53.954Z,0
2018-01-01T02:36:02.564Z,0
2018-01-01T02:37:11.174Z,0
2018-01-01T02:38:19.767Z,0
2018-01-01T02:39:28.370Z,0
2018-01-01T02:40:36.984Z,0
2018-01-01T02:41:45.582Z,0
2018-01-01T02:42:54.182Z,0
2018-01-01T02:44:02.796Z,0
2018-01-01T02:45:11.653Z,0
2018-01-01T02:46:20.245Z,0
2018-01-01T02:47:28.858Z,0
2018-01-01T02:48:37.463Z,0
2018-01-01T02:49:46.062Z,0
2018-01-01T02:50:54.673Z,0
2018-01-01T02:52:03.541Z,0
2018-01-01T02:53:12.145Z,0
2018-01-01T02:54:20.754Z,0
2018-01-01T02:55:29.611Z,0
2018-01-01T02:56:38.218Z,0
2018-01-01T02:57:46.832Z,0
2018-01-01T02:58:55.416Z,0
2018-01-01T03:00:04.044Z,0
2018-01-01T03:01:12.905Z,0
2018-01-01T03:02:21.497Z,0
2018-01-01T03:03:30.102Z,0
2018-01-01T03:04:38.710Z,0
2018-01-01T03:05:47.306Z,0
2018-01-01T03:06:55.910Z,0
2018-01-01T03:08:04.523Z,0
2018-01-01T03:09:13.118Z,0
2018-01-01T03:10:21.719Z,0
2018-01-01T03:11:30.314Z,0
2018-01-01T03:12:38.922Z,0
2018-01-01T03:13:47.533Z,0
2018-01-01T03:14:56.121Z,0
2018-01-01T03:16:04.723Z,0
2018-01-01T03:17:13.337Z,0
2018-01-01T03:18:21.928Z,0
2018-01-01T03:19:30.535Z,0
2018-01-01T03:20:39.146Z,0
2018-01-01T03:21:47.736Z,0
2018-01-01T03:22:56.333Z,0
2018-01-01T03:24:05.198Z,0
2018-01-01T03:25:13.804Z,0
2018-01-01T03:26:22.414Z,0
2018-01-01T03:27:31.006Z,0
2018-01-01T03:28:39.605Z,0
2018-01-01T03:29:48.221Z,0
2018-01-01T03:30:56.820Z,0
2018-01-01T03:32:05.415Z,0
2018-01-01T03:33:14.025Z,0
2018-01-01T03:34:22.625Z,0
2018-01-01T03:35:31.220Z,0
2018-01-01T03:36:39.831Z,0
2018-01-01T03:37:48.434Z,0
2018-01-01T03:38:57.039Z,0
2018-01-01T03:40:05.637Z,0
2018-01-01T03:41:14.234Z,0
2018-01-01T03:42:22.845Z,0
2018-01-01T03:43:31.446Z,0
2018-01-01T03:44:40.040Z,0
2018-01-01T03:45:48.647Z,0
2018-01-01T03:46:57.251Z,0
2018-01-01T03:48:06.118Z,0
2018-01-01T03:49:14.727Z,0
2018-01-01T03:50:23.333Z,0
2018-01-01T03:51:31.930Z,0
2018-01-01T03:52:40.531Z,0
2018-01-01T03:53:49.124Z,0
2018-01-01T03:54:57.740Z,0
2018-01-01T03:56:06.344Z,0
2018-01-01T03:57:14.941Z,0
2018-01-01T03:58:23.546Z,0
2018-01-01T03:59:32.156Z,0
2018-01-01T04:00:40.749Z,0
2018-01-01T04:01:49.356Z,0
2018-01-01T04:02:57.969Z,0
2018-01-01T04:04:06.558Z,0
2018-01-01T04:05:15.158Z,0
2018-01-01T04:06:23.767Z,0
2018-01-01T04:07:32.365Z,0
2018-01-01T04:08:40.971Z,0
2018-01-01T04:09:49.563Z,0
2018-01-01T04:10:58.166Z,0
2018-01-01T04:12:06.779Z,0
2018-01-01T04:13:15.373Z,0
2018-01-01T04:14:23.979Z,0
2018-01-01T04:15:32.588Z,0
2018-01-01T04:16:41.185Z,0
2018-01-01T04:17:49.779Z,0
2018-01-01T04:18:58.393Z,0
2018-01-01T04:20:06.993Z,0
2018-01-01T04:21:15.591Z,0
2018-01-01T04:22:24.194Z,0
2018-01-01T04:23:32.796Z,0
2018-01-01T04:24:41.663Z,0
2018-01-01T04:25:50.260Z,0
2018-01-01T04:26:58.857Z,0
2018-01-01T04:28:07.468Z,0
2018-01-01T04:29:16.069Z,0
2018-01-01T04:30:24.662Z,0
2018-01-01T04:31:33.276Z,0
2018-01-01T04:32:41.881Z,0
2018-01-01T04:33:50.473Z,0
2018-01-01T04:34:59.083Z,0
2018-01-01T04:36:07.690Z,0
2018-01-01T04:37:16.280Z,0
2018-01-01T04:38:24.887Z,0
2018-01-01T04:39:33.502Z,0
2018-01-01T04:40:42.100Z,0
2018-01-01T04:41:50.695Z,0
2018-01-01T04:42:59.306Z,0
2018-01-01T04:44:07.903Z,0
2018-01-01T04:45:16.500Z,0
2018-01-01T04:46:25.114Z,0
2018-01-01T04:47:33.715Z,0
2018-01-01T04:48:42.306Z,0
2018-01-01T04:49:50.915Z,0
2018-01-01T04:50:59.518Z,0
2018-01-01T04:52:08.126Z,0
2018-01-01T04:53:16.718Z,0
2018-01-01T04:54:25.313Z,0
2018-01-01T04:55:33.926Z,0
2018-01-01T04:56:42.527Z,0
2018-01-01T04:57:51.118Z,0
2018-01-01T04:58:59.729Z,0
2018-01-01T05:00:08.332Z,0
2018-01-01T05:01:16.919Z,0
2018-01-01T05:02:25.528Z,0
2018-01-01T05:03:34.137Z,0
2018-01-01T05:04:42.729Z,0
2018-01-01T05:05:51.332Z,0
2018-01-01T05:06:59.925Z,0
2018-01-01T05:08:08.538Z,0
2018-01-01T05:09:17.142Z,0
2018-01-01T05:10:25.737Z,0
2018-01-01T05:11:34.344Z,0
2018-01-01T05:12:43.214Z,0
2018-01-01T05:13:51.805Z,0
2018-01-01T05:15:00.410Z,0
2018-01-01T05:16:09.026Z,0
2018-01-01T05:17:17.616Z,0
2018-01-01T05:18:26.221Z,0
2018-01-01T05:19:34.827Z,0
2018-01-01T05:20:43.420Z,0
2018-01-01T05:21:52.032Z,0
2018-01-01T05:23:00.618Z,0
2018-01-01T05:24:09.222Z,0
2018-01-01T05:25:17.834Z,0
2018-01-01T05:26:26.424Z,0
2018-01-01T05:27:35.025Z,0
2018-01-01T05:28:43.640Z,0
2018-01-01T05:29:52.238Z,0
2018-01-01T05:31:00.832Z,0
2018-01-01T05:32:09.442Z,0
2018-01-01T05:33:18.041Z,0
2018-01-01T05:34:26.634Z,0
2018-01-01T05:35:35.239Z,0
2018-01-01T05:36:43.839Z,0
2018-01-01T05:37:52.452Z,0
2018-01-01T05:39:01.043Z,0
2018-01-01T05:40:09.643Z,0
2018-01-01T05:41:18.251Z,0
2018-01-01T05:42:26.854Z,0
2018-01-01T05:43:35.444Z,0
2018-01-01T05:44:44.055Z,0
2018-01-01T05:45:52.660Z,0
2018-01-01T05:47:01.251Z,0
2018-01-01T05:48:10.117Z,0
2018-01-01T05:49:18.724Z,0
2018-01-01T05:50:27.324Z,0
2018-01-01T05:51:35.925Z,0
2018-01-01T05:52:44.771Z,0
2018-01-01T05:53:53.378Z,0
2018-01-01T05:55:01.981Z,0
2018-01-01T05:56:10.575Z,0
2018-01-01T05:57:19.182Z,0
2018-01-01T05:58:27.791Z,0
2018-01-01T05:59:36.380Z,0
2018-01-01T06:00:44.981Z,0
2018-01-01T06:01:53.592Z,0
2018-01-01T06:03:02.183Z,0
2018-01-01T06:04:10.780Z,0
2018-01-01T06:05:19.640Z,0
2018-01-01T06:06:28.247Z,0
2018-01-01T06:07:37.117Z,0
2018-01-01T06:08:45.707Z,0
2018-01-01T06:09:54.311Z,0
2018-01-01T06:11:02.922Z,0
2018-01-01T06:12:11.513Z,0
2018-01-01T06:13:20.372Z,0
2018-01-01T06:14:28.987Z,0
2018-01-01T06:15:37.582Z,0
2018-01-01T06:16:46.174Z,0
2018-01-01T06:17:54.785Z,0
2018-01-01T06:19:03.386Z,0
2018-01-01T06:20:11.993Z,0
2018-01-01T06:21:20.841Z,0
2018-01-01T06:22:29.701Z,0
2018-01-01T06:23:38.320Z,0
2018-01-01T06:24:46.914Z,0
2018-01-01T06:25:55.513Z,0
2018-01-01T06:27:04.131Z,0
2018-01-01T06:28:12.732Z,0
2018-01-01T06:29:21.321Z,0
2018-01-01T06:30:29.933Z,0
2018-01-01T06:31:38.537Z,0
2018-01-01T06:32:47.385Z,0
2018-01-01T06:33:55.993Z,0
2018-01-01T06:35:04.603Z,0
2018-01-01T06:36:13.191Z,0
2018-01-01T06:37:21.803Z,0
2018-01-01T06:38:30.409Z,0
2018-01-01T06:39:39.005Z,0
2018-01-01T06:40:47.870Z,0
2018-01-01T06:41:56.482Z,0
2018-01-01T06:43:05.078Z,0
2018-01-01T06:44:13.671Z,0
2018-01-01T06:45:22.281Z,0
2018-01-01T06:46:30.884Z,0
2018-01-01T06:47:39.476Z,0
2018-01-01T06:48:48.084Z,0
2018-01-01T06:49:56.681Z,0
2018-01-01T06:51:05.813Z,0
2018-01-01T06:52:14.408Z,0
2018-01-01T06:53:23.005Z,0
2018-01-01T06:54:31.613Z,0
2018-01-01T06:55:40.209Z,0
2018-01-01T06:56:48.802Z,0
2018-01-01T06:57:57.416Z,0
2018-01-01T06:59:06.020Z,0
2018-01-01T07:00:14.614Z,0
2018-01-01T07:01:23.221Z,0
2018-01-01T07:02:31.827Z,0
2018-01-01T07:03:40.429Z,0
2018-01-01T07:04:49.031Z,4
2018-01-01T07:05:57.618Z,4
2018-01-01T07:07:06.230Z,0
2018-01-01T07:08:14.831Z,4
2018-01-01T07:09:23.427Z,4
2018-01-01T07:10:32.033Z,4
2018-01-01T07:11:40.640Z,0
2018-01-01T07:12:49.238Z,4
2018-01-01T07:13:57.841Z,4
2018-01-01T07:15:06.459Z,4
2018-01-01T07:16:15.060Z,0
2018-01-01T07:17:23.656Z,4
2018-01-01T07:18:32.254Z,0
2018-01-01T07:19:40.862Z,4
2018-01-01T07:20:49.476Z,4
2018-01-01T07:21:58.315Z,4
2018-01-01T07:23:06.920Z,4
2018-01-01T07:24:15.529Z,4
2018-01-01T07:25:24.123Z,8
2018-01-01T07:26:32.726Z,4
2018-01-01T07:27:41.335Z,8
2018-01-01T07:28:49.929Z,8
2018-01-01T07:29:58.526Z,8
2018-01-01T07:31:07.136Z,4
2018-01-01T07:32:15.746Z,8
2018-01-01T07:33:24.340Z,8
2018-01-01T07:34:32.934Z,8
2018-01-01T07:35:41.531Z,12
2018-01-01T07:36:50.144Z,16
2018-01-01T07:37:58.737Z,20
2018-01-01T07:39:07.333Z,24
2018-01-01T07:40:15.943Z,40
2018-01-01T07:41:24.544Z,44
2018-01-01T07:42:33.135Z,48
2018-01-01T07:43:41.744Z,52
2018-01-01T07:44:50.347Z,52
2018-01-01T07:45:58.937Z,52
2018-01-01T07:47:07.547Z,52
2018-01-01T07:48:16.138Z,44
2018-01-01T07:49:24.745Z,52
2018-01-01T07:50:33.343Z,64
2018-01-01T07:51:41.934Z,76
2018-01-01T07:52:50.545Z,120
2018-01-01T07:53:59.147Z,188
2018-01-01T07:55:07.745Z,196
2018-01-01T07:56:16.346Z,180
2018-01-01T07:57:24.950Z,148
2018-01-01T07:58:33.539Z,176
2018-01-01T07:59:42.142Z,312
2018-01-01T08:00:50.788Z,384
2018-01-01T08:01:59.350Z,412
2018-01-01T08:03:07.954Z,432
2018-01-01T08:04:16.544Z,460
2018-01-01T08:05:25.151Z,496
2018-01-01T08:06:33.757Z,524
2018-01-01T08:07:42.347Z,572
2018-01-01T08:08:50.949Z,608
2018-01-01T08:09:59.563Z,632
2018-01-01T08:11:08.154Z,660
2018-01-01T08:12:16.750Z,724
2018-01-01T08:13:25.362Z,776
2018-01-01T08:14:33.957Z,864
2018-01-01T08:15:42.547Z,932
2018-01-01T08:16:51.151Z,972
2018-01-01T08:17:59.755Z,1016
2018-01-01T08:19:08.361Z,988
2018-01-01T08:20:16.952Z,960
2018-01-01T08:21:25.550Z,892
2018-01-01T08:22:34.164Z,884
2018-01-01T08:23:42.757Z,884
2018-01-01T08:24:51.353Z,940
2018-01-01T08:25:59.963Z,984
2018-01-01T08:27:08.561Z,1044
2018-01-01T08:28:17.152Z,1068
2018-01-01T08:29:25.760Z,1064
2018-01-01T08:30:34.371Z,1116
2018-01-01T08:31:43.212Z,1156
2018-01-01T08:32:51.815Z,1108
2018-01-01T08:34:00.421Z,1116
2018-01-01T08:35:09.014Z,1180
2018-01-01T08:36:17.620Z,1028
2018-01-01T08:37:26.238Z,980
2018-01-01T08:38:34.825Z,1024
2018-01-01T08:39:43.425Z,1084
2018-01-01T08:40:52.034Z,976
2018-01-01T08:42:00.628Z,836
2018-01-01T08:43:09.221Z,904
2018-01-01T08:44:17.836Z,956
2018-01-01T08:45:26.699Z,1008
2018-01-01T08:46:35.563Z,996
2018-01-01T08:47:44.154Z,1000
2018-01-01T08:48:52.754Z,908
2018-01-01T08:50:01.369Z,804
2018-01-01T08:51:09.965Z,844
2018-01-01T08:52:18.559Z,832
2018-01-01T08:53:27.171Z,828
2018-01-01T08:54:35.771Z,864
2018-01-01T08:55:44.366Z,840
2018-01-01T08:56:52.976Z,828
2018-01-01T08:58:01.579Z,844
2018-01-01T08:59:10.214Z,824
2018-01-01T09:00:19.077Z,816
2018-01-01T09:01:27.672Z,700
2018-01-01T09:02:36.284Z,740
2018-01-01T09:03:44.884Z,724
2018-01-01T09:04:53.473Z,704
2018-01-01T09:06:02.087Z,700
2018-01-01T09:07:10.692Z,644
2018-01-01T09:08:19.282Z,628
2018-01-01T09:09:27.889Z,640
2018-01-01T09:10:36.497Z,624
2018-01-01T09:11:45.091Z,620
2018-01-01T09:12:53.693Z,632
2018-01-01T09:14:02.307Z,632
2018-01-01T09:15:10.900Z,596
2018-01-01T09:16:19.501Z,624
2018-01-01T09:17:28.093Z,652
2018-01-01T09:18:36.698Z,672
2018-01-01T09:19:45.308Z,700
2018-01-01T09:20:53.899Z,716
2018-01-01T09:22:02.503Z,688
2018-01-01T09:23:11.113Z,708
2018-01-01T09:24:19.706Z,776
2018-01-01T09:25:28.307Z,800
2018-01-01T09:26:36.918Z,840
2018-01-01T09:27:45.771Z,988
2018-01-01T09:28:54.365Z,1108
2018-01-01T09:30:02.980Z,1404
2018-01-01T09:31:11.578Z,1376
2018-01-01T09:32:20.171Z,1380
2018-01-01T09:33:28.779Z,1328
2018-01-01T09:34:37.385Z,1492
2018-01-01T09:35:45.976Z,1396
2018-01-01T09:36:54.585Z,1416
2018-01-01T09:38:03.450Z,1620
2018-01-01T09:39:12.042Z,1644
2018-01-01T09:40:20.646Z,1556
2018-01-01T09:41:29.256Z,1604
2018-01-01T09:42:37.847Z,1640
2018-01-01T09:43:46.445Z,1816
2018-01-01T09:44:55.047Z,1812
2018-01-01T09:46:03.658Z,1800
2018-01-01T09:47:12.262Z,1628
2018-01-01T09:48:20.860Z,1656
2018-01-01T09:49:29.715Z,1812
2018-01-01T09:50:38.325Z,1776
2018-01-01T09:51:46.916Z,1836
2018-01-01T09:52:55.518Z,2096
2018-01-01T09:54:04.127Z,1856
2018-01-01T09:55:12.723Z,1700
2018-01-01T09:56:21.317Z,1980
2018-01-01T09:57:29.929Z,1668
2018-01-01T09:58:38.529Z,1672
2018-01-01T09:59:47.133Z,2380
2018-01-01T10:00:55.726Z,2332
2018-01-01T10:02:04.329Z,2032
2018-01-01T10:03:12.939Z,2464
2018-01-01T10:04:21.536Z,2320
2018-01-01T10:05:30.135Z,2452
2018-01-01T10:06:38.747Z,2072
2018-01-01T10:07:47.346Z,2240
2018-01-01T10:08:55.939Z,2416
2018-01-01T10:10:04.547Z,2412
2018-01-01T10:11:13.151Z,2032
2018-01-01T10:12:21.742Z,1788
2018-01-01T10:13:30.351Z,2056
2018-01-01T10:14:38.950Z,1892
2018-01-01T10:15:47.556Z,1744
2018-01-01T10:16:56.161Z,1776
2018-01-01T10:18:04.750Z,2424
2018-01-01T10:19:13.365Z,2088
2018-01-01T10:20:21.972Z,1864
2018-01-01T10:21:30.566Z,1676
2018-01-01T10:22:39.174Z,2112
2018-01-01T10:23:47.782Z,2160
2018-01-01T10:24:56.378Z,2040
2018-01-01T10:26:04.980Z,2112
2018-01-01T10:27:13.596Z,2060
2018-01-01T10:28:22.184Z,2036
2018-01-01T10:29:31.044Z,2084
2018-01-01T10:30:39.655Z,2104
2018-01-01T10:31:48.252Z,1988
2018-01-01T10:32:56.844Z,1952
2018-01-01T10:34:05.462Z,2012
2018-01-01T10:35:14.061Z,1972
2018-01-01T10:36:22.652Z,1864
2018-01-01T10:37:31.264Z,2020
2018-01-01T10:38:39.866Z,2412
2018-01-01T10:39:48.778Z,2852
2018-01-01T10:40:57.386Z,2772
2018-01-01T10:42:05.999Z,2740
2018-01-01T10:43:14.853Z,2824
2018-01-01T10:44:23.457Z,2744
2018-01-01T10:45:32.049Z,2476
2018-01-01T10:46:40.670Z,2680
2018-01-01T10:47:49.266Z,2348
2018-01-01T10:48:57.855Z,2016
2018-01-01T10:50:06.726Z,2108
2018-01-01T10:51:15.335Z,2220
2018-01-01T10:52:23.929Z,1984
2018-01-01T10:53:32.535Z,2080
2018-01-01T10:54:41.149Z,2236
2018-01-01T10:55:49.738Z,2144
2018-01-01T10:56:58.336Z,2136
2018-01-01T10:58:06.940Z,2112
2018-01-01T10:59:15.813Z,1940
2018-01-01T11:00:24.417Z,1824
2018-01-01T11:01:33.012Z,1808
2018-01-01T11:02:41.617Z,1996
2018-01-01T11:03:50.492Z,2252
2018-01-01T11:04:59.081Z,2140
2018-01-01T11:06:07.681Z,1592
2018-01-01T11:07:16.293Z,1600
2018-01-01T11:08:25.152Z,1580
2018-01-01T11:09:33.741Z,1532
2018-01-01T11:10:42.358Z,1228
2018-01-01T11:11:50.957Z,1248
2018-01-01T11:12:59.565Z,1804
2018-01-01T11:14:08.159Z,2040
2018-01-01T11:15:16.758Z,1824
2018-01-01T11:16:25.372Z,1556
2018-01-01T11:17:33.976Z,1780
2018-01-01T11:18:42.559Z,2084
2018-01-01T11:19:51.173Z,1824
2018-01-01T11:20:59.782Z,1500
2018-01-01T11:22:08.369Z,1528
2018-01-01T11:23:16.984Z,1604
2018-01-01T11:24:25.589Z,1772
2018-01-01T11:25:34.435Z,1724
2018-01-01T11:26:43.050Z,1584
2018-01-01T11:27:51.642Z,1400
2018-01-01T11:29:00.262Z,1320
2018-01-01T11:30:08.867Z,1704
2018-01-01T11:31:17.718Z,2360
2018-01-01T11:32:26.330Z,2544
2018-01-01T11:33:34.929Z,2476
2018-01-01T11:34:43.781Z,2320
2018-01-01T11:35:52.391Z,2140
2018-01-01T11:37:00.999Z,2372
2018-01-01T11:38:09.591Z,1928
2018-01-01T11:39:18.195Z,2112
2018-01-01T11:40:26.817Z,2092
2018-01-01T11:41:35.403Z,2120
2018-01-01T11:42:44.008Z,1840
2018-01-01T11:43:52.599Z,1900
2018-01-01T11:45:01.207Z,1920
2018-01-01T11:46:09.814Z,2072
2018-01-01T11:47:18.409Z,1920
2018-01-01T11:48:27.016Z,2176
2018-01-01T11:49:35.628Z,2260
2018-01-01T11:50:44.472Z,2056
2018-01-01T11:51:53.072Z,2024
2018-01-01T11:53:01.710Z,2080
2018-01-01T11:54:10.304Z,1996
2018-01-01T11:55:18.902Z,2268
2018-01-01T11:56:27.504Z,2476
2018-01-01T11:57:36.111Z,2644
2018-01-01T11:58:44.725Z,2920
2018-01-01T11:59:53.317Z,2756
2018-01-01T12:01:01.916Z,2512
2018-01-01T12:02:10.789Z,2280
2018-01-01T12:03:19.387Z,2312
2018-01-01T12:04:28.241Z,2224
2018-01-01T12:05:36.859Z,2256
2018-01-01T12:06:45.455Z,2104
2018-01-01T12:07:54.048Z,2260
2018-01-01T12:09:02.923Z,2104
2018-01-01T12:10:11.529Z,2108
2018-01-01T12:11:20.154Z,2208
2018-01-01T12:12:28.731Z,2300
2018-01-01T12:13:37.329Z,2408
2018-01-01T12:14:45.946Z,2136
2018-01-01T12:15:54.552Z,1920
2018-01-01T12:17:03.147Z,2044
2018-01-01T12:18:11.761Z,2092
2018-01-01T12:19:20.363Z,2064
2018-01-01T12:20:28.958Z,2344
2018-01-01T12:21:37.824Z,2100
2018-01-01T12:22:46.433Z,2004
2018-01-01T12:23:55.024Z,2008
2018-01-01T12:25:03.631Z,2000
2018-01-01T12:26:12.247Z,1980
2018-01-01T12:27:21.092Z,1992
2018-01-01T12:28:29.689Z,1920
2018-01-01T12:29:38.305Z,1636
2018-01-01T12:30:46.902Z,1416
2018-01-01T12:31:55.502Z,1452
2018-01-01T12:33:04.113Z,1608
2018-01-01T12:34:12.717Z,1744
2018-01-01T12:35:21.310Z,1920
2018-01-01T12:36:29.926Z,1684
2018-01-01T12:37:38.529Z,1456
2018-01-01T12:38:47.126Z,1660
2018-01-01T12:39:55.736Z,1768
2018-01-01T12:41:04.330Z,1720
2018-01-01T12:42:12.955Z,1660
2018-01-01T12:43:21.547Z,1624
2018-01-01T12:44:30.141Z,1928
2018-01-01T12:45:38.754Z,2184
2018-01-01T12:46:47.369Z,1912
2018-01-01T12:47:55.961Z,1440
2018-01-01T12:49:04.569Z,1324
2018-01-01T12:50:13.177Z,1864
2018-01-01T12:51:22.033Z,2156
2018-01-01T12:52:30.636Z,2588
2018-01-01T12:53:39.296Z,1952
2018-01-01T12:54:47.845Z,1936
2018-01-01T12:55:56.450Z,2040
2018-01-01T12:57:05.041Z,2052
2018-01-01T12:58:13.665Z,1872
2018-01-01T12:59:22.259Z,1644
2018-01-01T13:00:31.170Z,1788
2018-01-01T13:01:39.775Z,1868
2018-01-01T13:02:48.390Z,1772
2018-01-01T13:03:56.982Z,1672
2018-01-01T13:05:05.587Z,1652
2018-01-01T13:06:14.248Z,1628
2018-01-01T13:07:22.800Z,1508
2018-01-01T13:08:31.659Z,1400
2018-01-01T13:09:40.263Z,1552
2018-01-01T13:10:49.130Z,1812
2018-01-01T13:11:57.746Z,1788
2018-01-01T13:13:06.335Z,1692
2018-01-01T13:14:14.938Z,1588
2018-01-01T13:15:23.549Z,1324
2018-01-01T13:16:32.151Z,1168
2018-01-01T13:17:40.746Z,1116
2018-01-01T13:18:49.359Z,1072
2018-01-01T13:19:57.963Z,1008
2018-01-01T13:21:06.562Z,980
2018-01-01T13:22:15.430Z,868
2018-01-01T13:23:24.032Z,848
2018-01-01T13:24:32.651Z,1024
2018-01-01T13:25:41.239Z,1080
2018-01-01T13:26:49.839Z,1004
2018-01-01T13:27:58.454Z,924
2018-01-01T13:29:07.060Z,760
2018-01-01T13:30:15.915Z,600
2018-01-01T13:31:24.532Z,556
2018-01-01T13:32:33.145Z,636
2018-01-01T13:33:41.731Z,680
2018-01-01T13:34:50.602Z,552
2018-01-01T13:35:59.212Z,540
2018-01-01T13:37:07.805Z,504
2018-01-01T13:38:16.409Z,356
2018-01-01T13:39:25.003Z,228
2018-01-01T13:40:33.616Z,220
2018-01-01T13:41:42.223Z,260
2018-01-01T13:42:50.817Z,396
2018-01-01T13:43:59.430Z,468
2018-01-01T13:45:08.036Z,508
2018-01-01T13:46:16.649Z,556
2018-01-01T13:47:25.234Z,612
2018-01-01T13:48:33.848Z,672
2018-01-01T13:49:42.438Z,728
2018-01-01T13:50:51.042Z,760
2018-01-01T13:51:59.655Z,764
2018-01-01T13:53:08.250Z,808
2018-01-01T13:54:16.859Z,836
2018-01-01T13:55:25.450Z,864
2018-01-01T13:56:34.058Z,872
2018-01-01T13:57:42.670Z,844
2018-01-01T13:58:51.524Z,796
2018-01-01T14:00:00.124Z,784
2018-01-01T14:01:09.010Z,780
2018-01-01T14:02:17.862Z,764
2018-01-01T14:03:26.457Z,776
2018-01-01T14:04:35.072Z,784
2018-01-01T14:05:43.673Z,744
2018-01-01T14:06:52.268Z,720
2018-01-01T14:08:00.874Z,832
2018-01-01T14:09:09.476Z,912
2018-01-01T14:10:18.090Z,916
2018-01-01T14:11:26.695Z,928
2018-01-01T14:12:35.293Z,988
2018-01-01T14:13:43.905Z,988
2018-01-01T14:14:52.504Z,960
2018-01-01T14:16:01.097Z,956
2018-01-01T14:17:09.721Z,896
2018-01-01T14:18:18.320Z,836
2018-01-01T14:19:26.959Z,708
2018-01-01T14:20:35.518Z,544
2018-01-01T14:21:44.127Z,444
2018-01-01T14:22:52.720Z,440
2018-01-01T14:24:01.372Z,444
2018-01-01T14:25:09.942Z,540
2018-01-01T14:26:18.535Z,600
2018-01-01T14:27:27.134Z,620
2018-01-01T14:28:35.751Z,624
2018-01-01T14:29:44.602Z,640
2018-01-01T14:30:53.197Z,660
2018-01-01T14:32:01.812Z,664
2018-01-01T14:33:10.673Z,672
2018-01-01T14:34:19.267Z,656
2018-01-01T14:35:27.886Z,648
2018-01-01T14:36:36.487Z,648
2018-01-01T14:37:45.092Z,644
2018-01-01T14:38:53.691Z,616
2018-01-01T14:40:02.288Z,580
2018-01-01T14:41:10.904Z,556
2018-01-01T14:42:19.504Z,548
2018-01-01T14:43:28.099Z,520
2018-01-01T14:44:36.974Z,472
2018-01-01T14:45:45.583Z,416
2018-01-01T14:46:54.172Z,380
2018-01-01T14:48:02.783Z,368
2018-01-01T14:49:11.391Z,348
2018-01-01T14:50:19.985Z,288
2018-01-01T14:51:28.594Z,244
2018-01-01T14:52:37.189Z,232
2018-01-01T14:53:45.807Z,216
2018-01-01T14:54:54.669Z,208
2018-01-01T14:56:03.263Z,212
2018-01-01T14:57:11.873Z,220
2018-01-01T14:58:20.482Z,212
2018-01-01T14:59:29.076Z,200
2018-01-01T15:00:37.684Z,196
2018-01-01T15:01:46.298Z,188
2018-01-01T15:02:54.894Z,184
2018-01-01T15:04:03.495Z,172
2018-01-01T15:05:12.105Z,148
2018-01-01T15:06:20.704Z,128
2018-01-01T15:07:29.315Z,120
2018-01-01T15:08:38.171Z,120
2018-01-01T15:09:46.775Z,108
2018-01-01T15:10:55.391Z,96
2018-01-01T15:12:03.986Z,92
2018-01-01T15:13:12.589Z,96
2018-01-01T15:14:21.204Z,108
2018-01-01T15:15:29.799Z,108
2018-01-01T15:16:38.393Z,116
2018-01-01T15:17:47.006Z,116
2018-01-01T15:18:55.612Z,116
2018-01-01T15:20:04.469Z,112
2018-01-01T15:21:13.079Z,96
2018-01-01T15:22:21.682Z,88
2018-01-01T15:23:30.295Z,80
2018-01-01T15:24:38.892Z,72
2018-01-01T15:25:47.489Z,64
2018-01-01T15:26:56.103Z,56
2018-01-01T15:28:04.710Z,44
2018-01-01T15:29:13.301Z,40
2018-01-01T15:30:21.915Z,32
2018-01-01T15:31:30.522Z,32
2018-01-01T15:32:39.113Z,28
2018-01-01T15:33:47.724Z,24
2018-01-01T15:34:56.335Z,20
2018-01-01T15:36:04.937Z,16
2018-01-01T15:37:13.538Z,16
2018-01-01T15:38:22.136Z,16
2018-01-01T15:39:30.746Z,16
2018-01-01T15:40:39.357Z,16
2018-01-01T15:41:47.947Z,12
2018-01-01T15:42:56.556Z,12
2018-01-01T15:44:05.165Z,12
2018-01-01T15:45:13.759Z,12
2018-01-01T15:46:22.364Z,8
2018-01-01T15:47:30.980Z,4
2018-01-01T15:48:39.567Z,4
2018-01-01T15:49:48.166Z,4
2018-01-01T15:50:56.772Z,4
2018-01-01T15:52:05.381Z,4
2018-01-01T15:53:13.994Z,4
2018-01-01T15:54:23.100Z,4
2018-01-01T15:55:31.706Z,4
2018-01-01T15:56:40.322Z,0
2018-01-01T15:57:48.913Z,4
2018-01-01T15:58:57.516Z,4
2018-01-01T16:00:06.128Z,0
2018-01-01T16:01:14.726Z,0
2018-01-01T16:02:23.321Z,0
2018-01-01T16:03:31.939Z,0
2018-01-01T16:04:40.570Z,0
2018-01-01T16:05:49.445Z,0
2018-01-01T16:06:58.040Z,0
2018-01-01T16:08:06.645Z,0
2018-01-01T16:09:15.260Z,0
2018-01-01T16:10:23.858Z,0